Historyczne dane pomiarowe

Dodano dane terminowe – wersja testowa.

Dane z okresu 1951-2019

Wersja bazy: 1.34 [2019-03-16, lista zmian], aktualizacja planowana na 2019-04-15

Dane meteo z obszaru Polski uzyskane na podstawie danych udostępnionych przez Instytut Meteorologii i Gospodarki Wodnej – Państwowy Instytut Badawczy.

 

Wybierz Datę:    

       

TemperaturaWilgotnośćWiatrCiśnienieOpadyŚniegCzas trwania zjawisk
 Stacja t tx tn tng RH VA  wxwx mslp ppp RRR   cm mm wxwxwxwxwxwxwx
1983-08-14 13.1 17.7 8.5 6.5 70.0- 4.3 6.3---- 1.2------------
1983-08-13 14.0 18.6 12.3 11.8 82.5- 7.0 5.3---- 7.2------------
1983-08-12 19.2 25.7 13.2 9.3 67.3- 3.7 4.7---- 6.3------------
1983-08-11 21.2 26.9 13.8 10.3 58.8- 4.3 2.0---- 0.0------------
1983-08-10 20.5 26.2 12.9 9.6 55.0- 0.3 4.3---- 0.0------------
1983-08-09 20.3 24.8 15.2 13.0 63.3- 2.3 2.0---- 0.0------------
1983-08-08 21.1 26.3 14.8 13.6 71.5- 3.0 2.3---- 0.0------------
1983-08-07 18.8 25.3 14.8 12.9 85.0- 6.0 2.3---- 0.3------------
1983-08-06 17.7 23.2 14.7 14.3 79.8- 4.0 2.3---- 0.0------------
1983-08-05 15.5 18.6 14.0 14.1 91.0- 8.0 2.7---- 2.3------------
1983-08-04 20.2 24.9 17.1 15.7 74.8- 7.3 4.0---- 3.5------------
1983-08-03 21.1 27.0 14.3 11.1 59.5- 3.7 4.0---- 0.3------------
1983-08-02 20.6 26.5 13.8 10.4 55.8- 1.7 5.3---- 0.0------------
1983-08-01 19.9 25.5 13.1 9.1 63.0- 1.3 5.0---- 0.0------------
1983-07-31 17.1 22.2 11.8 9.6 73.8- 5.0 3.0---- 0.0------------
1983-07-30 15.3 17.4 14.3 11.3 90.3- 7.3 5.7---- 0.9------------
1983-07-29 17.1 19.2 15.4 14.1 79.8- 7.0 3.0---- 0.4------------
1983-07-28 18.9 24.0 16.6 13.6 80.3- 7.0 6.0---- 0.0------------
1983-07-27 20.4 27.5 14.3 13.3 78.3- 4.3 1.3---- 0.0------------
1983-07-26 20.8 27.4 15.7 14.6 78.8- 5.3 7.0---- 0.4------------
1983-07-25 14.7 17.9 12.4 10.0 86.3- 6.3 5.3---- 0.5------------
1983-07-24 15.5 20.1 10.0 7.6 73.8- 3.7 2.3---- 0.4------------
1983-07-23 13.4 18.4 10.2 9.1 88.0- 7.0 3.0---- 6.9------------
1983-07-22 12.7 17.7 8.1 6.2 79.3- 6.0 5.0---- 3.6------------
1983-07-21 11.8 15.2 7.5 5.7 73.5- 5.7 6.0---- 0.0------------
1983-07-20 11.7 17.4 9.8 7.1 84.3- 6.0 4.0---- 4.3------------
1983-07-19 17.7 22.0 16.5 15.1 82.3- 7.3 5.7---- 8.4------------
1983-07-18 19.7 25.5 11.8 8.5 61.3- 2.0 3.0---- 0.4------------
1983-07-17 17.6 22.9 11.0 8.6 74.5- 3.7 2.3---- 0.0------------
1983-07-16 18.9 26.4 12.3 9.4 76.3- 7.7 8.3---- 15.4------------
1983-07-15 18.9 24.4 11.5 9.5 60.5- 1.7 4.0---- 0.0------------
1983-07-14 18.9 23.3 16.7 15.8 80.3- 7.0 6.0---- 0.0------------
1983-07-13 20.3 25.9 14.3 12.3 75.8- 5.7 1.3---- 0.0------------
1983-07-12 20.0 23.3 16.9 15.7 78.5- 3.3 2.3---- 0.0------------
1983-07-11 20.0 25.7 16.3 13.5 75.3- 7.3 3.3---- 11.0------------
1983-07-10 21.2 27.0 14.3 12.3 65.0- 4.3 3.7---- 0.0------------
1983-07-09 19.9 27.2 13.3 11.1 68.8- 2.7 5.3---- 4.1------------
1983-07-08 18.5 25.3 10.8 7.6 68.8- 4.0 4.3---- 0.0------------
1983-07-07 17.9 22.9 10.3 6.0 61.0- 0.0 5.0---- 0.0------------
1983-07-06 16.6 22.2 11.1 9.1 71.5- 4.3 4.0---- 0.0------------
1983-07-05 16.0 21.3 9.3 5.4 70.8- 3.0 2.0---- 0.0------------
1983-07-04 18.5 23.2 15.3 14.2 70.8- 6.7 5.0---- 0.0------------
1983-07-03 16.3 21.9 8.2 4.2 67.3- 5.0 2.0---- 0.0------------
1983-07-02 16.0 21.0 13.1 11.7 84.3- 5.7 6.0---- 2.4------------
1983-07-01 18.5 23.1 12.6 14.5 70.3- 6.0 4.7---- 0.0------------
1983-06-30 16.1 21.4 8.8 5.2 65.0- 3.3 4.7---- 0.0------------
1983-06-29 13.8 18.4 7.5 6.6 72.8- 3.0 4.0---- 0.0------------
1983-06-28 14.0 16.5 12.0 12.6 91.8- 7.7 2.3---- 7.1------------
1983-06-27 16.2 21.4 10.8 7.0 80.0- 6.7 4.0---- 3.5------------
1983-06-26 15.2 20.9 10.2 8.0 73.5- 5.3 2.3---- 0.0------------
1983-06-25 17.4 24.2 9.8 6.6 68.0- 4.3 6.3---- 0.0------------
1983-06-24 15.9 23.0 4.9 0.8 51.8- 1.7 3.3---- 0.0------------
1983-06-23 13.7 19.4 4.5 2.6 60.3- 0.0 3.0---- 0.0------------
1983-06-22 11.3 15.0 4.5 1.3 53.8- 1.3 2.0---- 0.0------------
1983-06-21 13.5 18.0 10.2 8.6 65.8- 2.7 8.0---- 0.0------------
1983-06-20 17.7 22.4 10.8 8.2 65.8- 0.7 4.7---- 0.0------------
1983-06-19 16.7 19.4 13.8 12.5 79.3- 6.3 4.3---- 0.0------------
1983-06-18 13.9 17.7 10.3 10.1 84.5- 7.0 6.0---- 0.0------------
1983-06-17 13.9 19.4 10.2 9.6 76.3- 6.0 5.0---- 0.0------------
1983-06-16 12.4 16.5 10.2 10.4 93.8- 8.0 13.7---- 6.5------------
263.7 ms

 

Źródłem pochodzenia danych jest Instytut Meteorologii i Gospodarki Wodnej – Państwowy Instytut Badawczy. Dane Instytutu Meteorologii i Gospodarki Wodnej – Państwowego Instytutu Badawczego zostały przetworzone.

Dane źródłowe można odnaleźć na stronie https://dane.imgw.pl